sensor_id;sensor_type;location;lat;lon;timestamp;P1;durP1;ratioP1;P2;durP2;ratioP2
3627;SDS011;1830;49.000;12.074;2023-11-21T00:01:45;12.23;;;5.50;;
3627;SDS011;1830;49.000;12.074;2023-11-21T00:04:12;14.33;;;5.40;;
3627;SDS011;1830;49.000;12.074;2023-11-21T00:06:40;6.83;;;4.47;;
3627;SDS011;1830;49.000;12.074;2023-11-21T00:09:07;16.53;;;5.30;;
3627;SDS011;1830;49.000;12.074;2023-11-21T00:11:36;13.00;;;6.13;;
3627;SDS011;1830;49.000;12.074;2023-11-21T00:14:03;17.47;;;6.40;;
3627;SDS011;1830;49.000;12.074;2023-11-21T00:16:32;9.27;;;5.17;;
3627;SDS011;1830;49.000;12.074;2023-11-21T00:18:59;13.93;;;4.93;;
3627;SDS011;1830;49.000;12.074;2023-11-21T00:21:25;14.00;;;5.93;;
3627;SDS011;1830;49.000;12.074;2023-11-21T00:23:52;18.70;;;5.70;;
3627;SDS011;1830;49.000;12.074;2023-11-21T00:26:19;15.13;;;6.60;;
3627;SDS011;1830;49.000;12.074;2023-11-21T00:28:46;14.97;;;5.80;;
3627;SDS011;1830;49.000;12.074;2023-11-21T00:31:12;14.37;;;6.23;;
3627;SDS011;1830;49.000;12.074;2023-11-21T00:33:40;21.03;;;5.97;;
3627;SDS011;1830;49.000;12.074;2023-11-21T00:36:07;17.87;;;6.07;;
3627;SDS011;1830;49.000;12.074;2023-11-21T00:38:34;18.90;;;5.43;;
3627;SDS011;1830;49.000;12.074;2023-11-21T00:41:01;8.97;;;5.60;;
3627;SDS011;1830;49.000;12.074;2023-11-21T00:43:28;18.13;;;5.50;;
3627;SDS011;1830;49.000;12.074;2023-11-21T00:45:55;18.27;;;6.10;;
3627;SDS011;1830;49.000;12.074;2023-11-21T00:48:22;11.87;;;5.50;;
3627;SDS011;1830;49.000;12.074;2023-11-21T00:50:50;16.03;;;5.93;;
3627;SDS011;1830;49.000;12.074;2023-11-21T00:53:16;12.37;;;5.30;;
3627;SDS011;1830;49.000;12.074;2023-11-21T00:55:43;11.80;;;5.80;;
3627;SDS011;1830;49.000;12.074;2023-11-21T00:58:11;12.60;;;6.10;;
3627;SDS011;1830;49.000;12.074;2023-11-21T01:00:37;14.87;;;5.80;;
3627;SDS011;1830;49.000;12.074;2023-11-21T01:03:05;13.53;;;5.93;;
3627;SDS011;1830;49.000;12.074;2023-11-21T01:05:32;32.63;;;6.60;;
3627;SDS011;1830;49.000;12.074;2023-11-21T01:08:01;15.77;;;5.43;;
3627;SDS011;1830;49.000;12.074;2023-11-21T01:10:27;11.87;;;5.90;;
3627;SDS011;1830;49.000;12.074;2023-11-21T01:12:55;15.43;;;5.83;;
3627;SDS011;1830;49.000;12.074;2023-11-21T01:15:23;14.67;;;6.30;;
3627;SDS011;1830;49.000;12.074;2023-11-21T01:17:51;12.07;;;5.30;;
3627;SDS011;1830;49.000;12.074;2023-11-21T01:20:17;10.73;;;5.60;;
3627;SDS011;1830;49.000;12.074;2023-11-21T01:22:44;18.73;;;6.20;;
3627;SDS011;1830;49.000;12.074;2023-11-21T01:25:15;19.03;;;6.47;;
3627;SDS011;1830;49.000;12.074;2023-11-21T01:27:42;15.67;;;5.83;;
3627;SDS011;1830;49.000;12.074;2023-11-21T01:30:09;11.60;;;4.70;;
3627;SDS011;1830;49.000;12.074;2023-11-21T01:32:36;13.33;;;5.23;;
3627;SDS011;1830;49.000;12.074;2023-11-21T01:35:04;10.33;;;4.77;;
3627;SDS011;1830;49.000;12.074;2023-11-21T01:37:31;12.07;;;5.30;;
3627;SDS011;1830;49.000;12.074;2023-11-21T01:39:58;18.30;;;5.17;;
3627;SDS011;1830;49.000;12.074;2023-11-21T01:42:27;13.73;;;5.20;;
3627;SDS011;1830;49.000;12.074;2023-11-21T01:44:55;10.13;;;4.83;;
3627;SDS011;1830;49.000;12.074;2023-11-21T01:47:22;11.93;;;5.40;;
3627;SDS011;1830;49.000;12.074;2023-11-21T01:49:49;11.33;;;4.40;;
3627;SDS011;1830;49.000;12.074;2023-11-21T01:52:16;10.93;;;4.80;;
3627;SDS011;1830;49.000;12.074;2023-11-21T01:54:43;16.47;;;4.90;;
3627;SDS011;1830;49.000;12.074;2023-11-21T01:57:09;10.67;;;4.63;;
3627;SDS011;1830;49.000;12.074;2023-11-21T01:59:38;6.33;;;4.43;;
3627;SDS011;1830;49.000;12.074;2023-11-21T02:02:07;7.83;;;4.43;;
3627;SDS011;1830;49.000;12.074;2023-11-21T02:04:34;16.13;;;5.00;;
3627;SDS011;1830;49.000;12.074;2023-11-21T02:07:02;10.03;;;4.53;;
3627;SDS011;1830;49.000;12.074;2023-11-21T02:09:30;11.93;;;5.40;;
3627;SDS011;1830;49.000;12.074;2023-11-21T02:11:58;7.33;;;4.23;;
3627;SDS011;1830;49.000;12.074;2023-11-21T02:14:25;12.50;;;4.40;;
3627;SDS011;1830;49.000;12.074;2023-11-21T02:16:54;14.30;;;4.80;;
3627;SDS011;1830;49.000;12.074;2023-11-21T02:19:22;9.47;;;4.70;;
3627;SDS011;1830;49.000;12.074;2023-11-21T02:21:50;11.27;;;4.90;;
3627;SDS011;1830;49.000;12.074;2023-11-21T02:24:19;12.77;;;5.00;;
3627;SDS011;1830;49.000;12.074;2023-11-21T02:26:46;14.30;;;5.37;;
3627;SDS011;1830;49.000;12.074;2023-11-21T02:29:16;15.83;;;4.80;;
3627;SDS011;1830;49.000;12.074;2023-11-21T02:31:43;8.43;;;4.47;;
3627;SDS011;1830;49.000;12.074;2023-11-21T02:34:13;10.63;;;4.60;;
3627;SDS011;1830;49.000;12.074;2023-11-21T02:36:40;12.83;;;4.33;;
3627;SDS011;1830;49.000;12.074;2023-11-21T02:39:08;10.03;;;4.80;;
3627;SDS011;1830;49.000;12.074;2023-11-21T02:41:37;10.17;;;4.70;;
3627;SDS011;1830;49.000;12.074;2023-11-21T02:44:04;9.93;;;4.37;;
3627;SDS011;1830;49.000;12.074;2023-11-21T02:46:32;7.30;;;4.50;;
3627;SDS011;1830;49.000;12.074;2023-11-21T02:48:59;10.73;;;4.30;;
3627;SDS011;1830;49.000;12.074;2023-11-21T02:51:26;11.73;;;4.63;;
3627;SDS011;1830;49.000;12.074;2023-11-21T02:53:53;8.50;;;4.00;;
3627;SDS011;1830;49.000;12.074;2023-11-21T02:56:23;9.37;;;4.87;;
3627;SDS011;1830;49.000;12.074;2023-11-21T02:58:51;20.17;;;5.50;;
3627;SDS011;1830;49.000;12.074;2023-11-21T03:01:18;17.77;;;4.67;;
3627;SDS011;1830;49.000;12.074;2023-11-21T03:03:45;9.70;;;5.27;;
3627;SDS011;1830;49.000;12.074;2023-11-21T03:06:16;14.77;;;4.50;;
3627;SDS011;1830;49.000;12.074;2023-11-21T03:08:42;8.97;;;4.17;;
3627;SDS011;1830;49.000;12.074;2023-11-21T03:11:09;11.83;;;4.60;;
3627;SDS011;1830;49.000;12.074;2023-11-21T03:13:37;7.90;;;3.80;;
3627;SDS011;1830;49.000;12.074;2023-11-21T03:16:06;10.93;;;3.90;;
3627;SDS011;1830;49.000;12.074;2023-11-21T03:18:33;4.60;;;4.20;;
3627;SDS011;1830;49.000;12.074;2023-11-21T03:21:01;6.27;;;3.90;;
3627;SDS011;1830;49.000;12.074;2023-11-21T03:23:28;13.97;;;4.10;;
3627;SDS011;1830;49.000;12.074;2023-11-21T03:25:54;9.17;;;3.23;;
3627;SDS011;1830;49.000;12.074;2023-11-21T03:28:21;14.53;;;4.17;;
3627;SDS011;1830;49.000;12.074;2023-11-21T03:30:48;9.93;;;3.90;;
3627;SDS011;1830;49.000;12.074;2023-11-21T03:33:16;9.47;;;4.10;;
3627;SDS011;1830;49.000;12.074;2023-11-21T03:35:43;7.67;;;3.97;;
3627;SDS011;1830;49.000;12.074;2023-11-21T03:38:11;8.43;;;3.67;;
3627;SDS011;1830;49.000;12.074;2023-11-21T03:40:38;8.77;;;3.70;;
3627;SDS011;1830;49.000;12.074;2023-11-21T03:43:05;6.60;;;3.20;;
3627;SDS011;1830;49.000;12.074;2023-11-21T03:45:32;5.80;;;3.57;;
3627;SDS011;1830;49.000;12.074;2023-11-21T03:47:59;6.30;;;3.80;;
3627;SDS011;1830;49.000;12.074;2023-11-21T03:50:28;14.27;;;3.70;;
3627;SDS011;1830;49.000;12.074;2023-11-21T03:52:55;5.17;;;3.10;;
3627;SDS011;1830;49.000;12.074;2023-11-21T03:55:21;7.13;;;3.83;;
3627;SDS011;1830;49.000;12.074;2023-11-21T03:57:49;7.57;;;4.90;;
3627;SDS011;1830;49.000;12.074;2023-11-21T04:00:16;11.10;;;4.90;;
3627;SDS011;1830;49.000;12.074;2023-11-21T04:02:45;13.93;;;5.23;;
3627;SDS011;1830;49.000;12.074;2023-11-21T04:05:12;13.00;;;5.63;;
3627;SDS011;1830;49.000;12.074;2023-11-21T04:07:40;15.17;;;6.90;;
3627;SDS011;1830;49.000;12.074;2023-11-21T04:10:07;13.67;;;7.17;;
3627;SDS011;1830;49.000;12.074;2023-11-21T04:12:37;13.60;;;7.40;;
3627;SDS011;1830;49.000;12.074;2023-11-21T04:15:04;15.43;;;7.10;;
3627;SDS011;1830;49.000;12.074;2023-11-21T04:17:33;22.50;;;8.23;;
3627;SDS011;1830;49.000;12.074;2023-11-21T04:20:01;17.03;;;7.90;;
3627;SDS011;1830;49.000;12.074;2023-11-21T04:22:29;17.97;;;7.97;;
3627;SDS011;1830;49.000;12.074;2023-11-21T04:24:57;15.53;;;7.90;;
3627;SDS011;1830;49.000;12.074;2023-11-21T04:27:24;14.50;;;6.53;;
3627;SDS011;1830;49.000;12.074;2023-11-21T04:29:51;17.53;;;7.17;;
3627;SDS011;1830;49.000;12.074;2023-11-21T04:32:17;14.33;;;8.20;;
3627;SDS011;1830;49.000;12.074;2023-11-21T04:34:45;15.50;;;6.83;;
3627;SDS011;1830;49.000;12.074;2023-11-21T04:37:12;20.97;;;7.80;;
3627;SDS011;1830;49.000;12.074;2023-11-21T04:39:39;19.67;;;6.90;;
3627;SDS011;1830;49.000;12.074;2023-11-21T04:42:07;11.67;;;6.97;;
3627;SDS011;1830;49.000;12.074;2023-11-21T04:44:34;12.73;;;7.40;;
3627;SDS011;1830;49.000;12.074;2023-11-21T04:47:01;14.00;;;7.33;;
3627;SDS011;1830;49.000;12.074;2023-11-21T04:49:29;15.63;;;7.60;;
3627;SDS011;1830;49.000;12.074;2023-11-21T04:51:56;14.97;;;7.67;;
3627;SDS011;1830;49.000;12.074;2023-11-21T04:54:23;15.40;;;8.43;;
3627;SDS011;1830;49.000;12.074;2023-11-21T04:56:50;10.93;;;6.93;;
3627;SDS011;1830;49.000;12.074;2023-11-21T04:59:18;14.30;;;7.70;;
3627;SDS011;1830;49.000;12.074;2023-11-21T05:01:44;14.40;;;7.43;;
3627;SDS011;1830;49.000;12.074;2023-11-21T05:04:11;22.60;;;8.23;;
3627;SDS011;1830;49.000;12.074;2023-11-21T05:06:39;19.67;;;8.60;;
3627;SDS011;1830;49.000;12.074;2023-11-21T05:09:07;23.20;;;7.93;;
3627;SDS011;1830;49.000;12.074;2023-11-21T05:11:37;8.33;;;6.73;;
3627;SDS011;1830;49.000;12.074;2023-11-21T05:14:04;17.60;;;7.40;;
3627;SDS011;1830;49.000;12.074;2023-11-21T05:16:42;17.70;;;8.50;;
3627;SDS011;1830;49.000;12.074;2023-11-21T05:19:09;9.93;;;8.10;;
3627;SDS011;1830;49.000;12.074;2023-11-21T05:21:38;15.90;;;8.33;;
3627;SDS011;1830;49.000;12.074;2023-11-21T05:24:05;16.40;;;7.40;;
3627;SDS011;1830;49.000;12.074;2023-11-21T05:26:35;21.33;;;9.33;;
3627;SDS011;1830;49.000;12.074;2023-11-21T05:29:03;18.20;;;9.03;;
3627;SDS011;1830;49.000;12.074;2023-11-21T05:31:32;15.13;;;7.90;;
3627;SDS011;1830;49.000;12.074;2023-11-21T05:34:00;11.80;;;7.90;;
3627;SDS011;1830;49.000;12.074;2023-11-21T05:36:27;18.03;;;7.40;;
3627;SDS011;1830;49.000;12.074;2023-11-21T05:38:54;13.33;;;7.53;;
3627;SDS011;1830;49.000;12.074;2023-11-21T05:41:20;13.03;;;8.53;;
3627;SDS011;1830;49.000;12.074;2023-11-21T05:43:48;17.10;;;8.80;;
3627;SDS011;1830;49.000;12.074;2023-11-21T05:46:15;23.43;;;9.83;;
3627;SDS011;1830;49.000;12.074;2023-11-21T05:48:41;22.00;;;8.17;;
3627;SDS011;1830;49.000;12.074;2023-11-21T05:51:10;20.03;;;9.23;;
3627;SDS011;1830;49.000;12.074;2023-11-21T05:53:37;17.63;;;8.20;;
3627;SDS011;1830;49.000;12.074;2023-11-21T05:56:04;17.80;;;8.53;;
3627;SDS011;1830;49.000;12.074;2023-11-21T05:58:31;19.33;;;8.53;;
3627;SDS011;1830;49.000;12.074;2023-11-21T06:00:58;21.90;;;8.93;;
3627;SDS011;1830;49.000;12.074;2023-11-21T06:03:24;18.20;;;9.17;;
3627;SDS011;1830;49.000;12.074;2023-11-21T06:05:51;17.30;;;8.73;;
3627;SDS011;1830;49.000;12.074;2023-11-21T06:08:20;14.23;;;8.60;;
3627;SDS011;1830;49.000;12.074;2023-11-21T06:10:47;15.33;;;8.70;;
3627;SDS011;1830;49.000;12.074;2023-11-21T06:13:14;18.40;;;8.80;;
3627;SDS011;1830;49.000;12.074;2023-11-21T06:15:41;23.63;;;8.70;;
3627;SDS011;1830;49.000;12.074;2023-11-21T06:18:08;17.47;;;9.10;;
3627;SDS011;1830;49.000;12.074;2023-11-21T06:20:36;28.27;;;10.27;;
3627;SDS011;1830;49.000;12.074;2023-11-21T06:23:03;19.93;;;9.60;;
3627;SDS011;1830;49.000;12.074;2023-11-21T06:25:32;14.73;;;8.80;;
3627;SDS011;1830;49.000;12.074;2023-11-21T06:28:01;17.07;;;8.90;;
3627;SDS011;1830;49.000;12.074;2023-11-21T06:30:28;20.40;;;10.17;;
3627;SDS011;1830;49.000;12.074;2023-11-21T06:32:54;22.10;;;12.23;;
3627;SDS011;1830;49.000;12.074;2023-11-21T06:35:21;20.17;;;12.10;;
3627;SDS011;1830;49.000;12.074;2023-11-21T06:37:48;15.30;;;10.50;;
3627;SDS011;1830;49.000;12.074;2023-11-21T06:40:17;17.30;;;10.60;;
3627;SDS011;1830;49.000;12.074;2023-11-21T06:42:45;18.37;;;11.57;;
3627;SDS011;1830;49.000;12.074;2023-11-21T06:45:12;20.53;;;12.10;;
3627;SDS011;1830;49.000;12.074;2023-11-21T06:47:40;18.20;;;11.00;;
3627;SDS011;1830;49.000;12.074;2023-11-21T06:50:07;21.47;;;10.90;;
3627;SDS011;1830;49.000;12.074;2023-11-21T06:52:34;21.37;;;11.00;;
3627;SDS011;1830;49.000;12.074;2023-11-21T06:55:01;26.60;;;12.20;;
3627;SDS011;1830;49.000;12.074;2023-11-21T06:57:28;19.60;;;12.07;;
3627;SDS011;1830;49.000;12.074;2023-11-21T06:59:56;25.43;;;12.33;;
3627;SDS011;1830;49.000;12.074;2023-11-21T07:02:23;27.40;;;12.40;;
3627;SDS011;1830;49.000;12.074;2023-11-21T07:04:50;19.77;;;11.50;;
3627;SDS011;1830;49.000;12.074;2023-11-21T07:07:17;21.93;;;12.07;;
3627;SDS011;1830;49.000;12.074;2023-11-21T07:09:44;22.27;;;11.80;;
3627;SDS011;1830;49.000;12.074;2023-11-21T07:12:11;17.83;;;11.33;;
3627;SDS011;1830;49.000;12.074;2023-11-21T07:14:39;23.00;;;11.47;;
3627;SDS011;1830;49.000;12.074;2023-11-21T07:17:09;32.07;;;11.73;;
3627;SDS011;1830;49.000;12.074;2023-11-21T07:19:37;26.30;;;12.33;;
3627;SDS011;1830;49.000;12.074;2023-11-21T07:22:03;28.33;;;13.10;;
3627;SDS011;1830;49.000;12.074;2023-11-21T07:24:31;22.13;;;11.10;;
3627;SDS011;1830;49.000;12.074;2023-11-21T07:26:57;26.67;;;11.43;;
3627;SDS011;1830;49.000;12.074;2023-11-21T07:29:24;20.07;;;10.50;;
3627;SDS011;1830;49.000;12.074;2023-11-21T07:31:51;20.57;;;10.87;;
3627;SDS011;1830;49.000;12.074;2023-11-21T07:34:20;35.60;;;11.50;;
3627;SDS011;1830;49.000;12.074;2023-11-21T07:36:47;22.77;;;12.37;;
3627;SDS011;1830;49.000;12.074;2023-11-21T07:39:14;39.50;;;11.10;;
3627;SDS011;1830;49.000;12.074;2023-11-21T07:41:41;35.80;;;12.90;;
3627;SDS011;1830;49.000;12.074;2023-11-21T07:44:13;31.40;;;11.97;;
3627;SDS011;1830;49.000;12.074;2023-11-21T07:46:41;25.77;;;11.70;;
3627;SDS011;1830;49.000;12.074;2023-11-21T07:49:09;15.50;;;9.93;;
3627;SDS011;1830;49.000;12.074;2023-11-21T07:51:37;21.60;;;11.83;;
3627;SDS011;1830;49.000;12.074;2023-11-21T07:54:04;19.07;;;10.10;;
3627;SDS011;1830;49.000;12.074;2023-11-21T07:56:31;18.80;;;11.07;;
3627;SDS011;1830;49.000;12.074;2023-11-21T07:58:58;19.87;;;10.90;;
3627;SDS011;1830;49.000;12.074;2023-11-21T08:01:25;22.07;;;11.70;;
3627;SDS011;1830;49.000;12.074;2023-11-21T08:03:53;20.80;;;10.20;;
3627;SDS011;1830;49.000;12.074;2023-11-21T08:06:22;18.80;;;10.33;;
3627;SDS011;1830;49.000;12.074;2023-11-21T08:08:50;19.80;;;9.87;;
3627;SDS011;1830;49.000;12.074;2023-11-21T08:11:17;13.97;;;9.37;;
3627;SDS011;1830;49.000;12.074;2023-11-21T08:13:44;21.03;;;10.00;;
3627;SDS011;1830;49.000;12.074;2023-11-21T08:16:11;13.70;;;9.00;;
3627;SDS011;1830;49.000;12.074;2023-11-21T08:18:38;17.63;;;10.80;;
3627;SDS011;1830;49.000;12.074;2023-11-21T08:21:06;16.53;;;10.63;;
3627;SDS011;1830;49.000;12.074;2023-11-21T08:23:33;14.60;;;9.80;;
3627;SDS011;1830;49.000;12.074;2023-11-21T08:26:01;19.80;;;10.30;;
3627;SDS011;1830;49.000;12.074;2023-11-21T08:28:28;18.47;;;10.30;;
3627;SDS011;1830;49.000;12.074;2023-11-21T08:30:55;16.00;;;10.33;;
3627;SDS011;1830;49.000;12.074;2023-11-21T08:33:22;24.20;;;13.50;;
3627;SDS011;1830;49.000;12.074;2023-11-21T08:35:49;14.00;;;10.00;;
3627;SDS011;1830;49.000;12.074;2023-11-21T08:38:15;15.20;;;8.30;;
3627;SDS011;1830;49.000;12.074;2023-11-21T08:40:42;19.40;;;7.93;;
3627;SDS011;1830;49.000;12.074;2023-11-21T08:43:10;16.70;;;10.50;;
3627;SDS011;1830;49.000;12.074;2023-11-21T08:45:39;13.43;;;7.73;;
3627;SDS011;1830;49.000;12.074;2023-11-21T08:48:06;9.97;;;7.00;;
3627;SDS011;1830;49.000;12.074;2023-11-21T08:50:33;10.60;;;7.13;;
3627;SDS011;1830;49.000;12.074;2023-11-21T08:53:00;19.40;;;10.43;;
3627;SDS011;1830;49.000;12.074;2023-11-21T08:55:27;10.87;;;7.33;;
3627;SDS011;1830;49.000;12.074;2023-11-21T08:57:53;11.67;;;6.23;;
3627;SDS011;1830;49.000;12.074;2023-11-21T09:00:22;14.07;;;9.00;;
3627;SDS011;1830;49.000;12.074;2023-11-21T09:02:48;11.23;;;7.03;;
3627;SDS011;1830;49.000;12.074;2023-11-21T09:05:15;8.97;;;6.40;;
3627;SDS011;1830;49.000;12.074;2023-11-21T09:07:42;10.63;;;7.50;;
3627;SDS011;1830;49.000;12.074;2023-11-21T09:10:11;10.30;;;6.23;;
3627;SDS011;1830;49.000;12.074;2023-11-21T09:12:39;20.50;;;10.90;;
3627;SDS011;1830;49.000;12.074;2023-11-21T09:15:08;16.60;;;7.60;;
3627;SDS011;1830;49.000;12.074;2023-11-21T09:17:38;9.83;;;6.90;;
3627;SDS011;1830;49.000;12.074;2023-11-21T09:20:05;8.13;;;6.27;;
3627;SDS011;1830;49.000;12.074;2023-11-21T09:22:35;8.07;;;6.50;;
3627;SDS011;1830;49.000;12.074;2023-11-21T09:25:01;12.10;;;6.43;;
3627;SDS011;1830;49.000;12.074;2023-11-21T09:27:30;8.60;;;6.30;;
3627;SDS011;1830;49.000;12.074;2023-11-21T09:29:57;10.33;;;6.50;;
3627;SDS011;1830;49.000;12.074;2023-11-21T09:32:24;8.13;;;5.83;;
3627;SDS011;1830;49.000;12.074;2023-11-21T09:34:52;9.83;;;6.20;;
3627;SDS011;1830;49.000;12.074;2023-11-21T09:37:20;10.57;;;6.70;;
3627;SDS011;1830;49.000;12.074;2023-11-21T09:39:47;10.27;;;5.80;;
3627;SDS011;1830;49.000;12.074;2023-11-21T09:42:17;8.73;;;5.90;;
3627;SDS011;1830;49.000;12.074;2023-11-21T09:44:51;6.33;;;5.30;;
3627;SDS011;1830;49.000;12.074;2023-11-21T09:47:26;13.37;;;9.70;;
3627;SDS011;1830;49.000;12.074;2023-11-21T09:49:55;14.50;;;6.10;;
3627;SDS011;1830;49.000;12.074;2023-11-21T09:52:26;7.70;;;6.90;;
3627;SDS011;1830;49.000;12.074;2023-11-21T09:54:54;12.77;;;9.67;;
3627;SDS011;1830;49.000;12.074;2023-11-21T09:57:23;10.60;;;7.10;;
3627;SDS011;1830;49.000;12.074;2023-11-21T09:59:51;10.13;;;7.60;;
3627;SDS011;1830;49.000;12.074;2023-11-21T10:02:21;8.00;;;5.93;;
3627;SDS011;1830;49.000;12.074;2023-11-21T10:04:51;7.43;;;5.63;;
3627;SDS011;1830;49.000;12.074;2023-11-21T10:07:19;6.30;;;5.10;;
3627;SDS011;1830;49.000;12.074;2023-11-21T10:09:47;6.90;;;5.20;;
3627;SDS011;1830;49.000;12.074;2023-11-21T10:12:14;9.00;;;5.00;;
3627;SDS011;1830;49.000;12.074;2023-11-21T10:14:42;6.30;;;4.90;;
3627;SDS011;1830;49.000;12.074;2023-11-21T10:17:10;7.03;;;4.53;;
3627;SDS011;1830;49.000;12.074;2023-11-21T10:19:38;11.50;;;5.33;;
3627;SDS011;1830;49.000;12.074;2023-11-21T10:22:06;6.20;;;4.47;;
3627;SDS011;1830;49.000;12.074;2023-11-21T10:24:35;6.73;;;4.50;;
3627;SDS011;1830;49.000;12.074;2023-11-21T10:27:03;7.07;;;4.47;;
3627;SDS011;1830;49.000;12.074;2023-11-21T10:29:30;7.30;;;4.23;;
3627;SDS011;1830;49.000;12.074;2023-11-21T10:32:01;6.60;;;4.47;;
3627;SDS011;1830;49.000;12.074;2023-11-21T10:34:28;4.33;;;3.93;;
3627;SDS011;1830;49.000;12.074;2023-11-21T10:36:55;7.40;;;4.90;;
3627;SDS011;1830;49.000;12.074;2023-11-21T10:39:23;5.03;;;4.63;;
3627;SDS011;1830;49.000;12.074;2023-11-21T10:41:54;4.30;;;3.90;;
3627;SDS011;1830;49.000;12.074;2023-11-21T10:44:21;4.40;;;4.00;;
3627;SDS011;1830;49.000;12.074;2023-11-21T10:46:49;5.57;;;4.43;;
3627;SDS011;1830;49.000;12.074;2023-11-21T10:49:20;4.23;;;3.80;;
3627;SDS011;1830;49.000;12.074;2023-11-21T10:51:49;4.23;;;3.77;;
3627;SDS011;1830;49.000;12.074;2023-11-21T10:54:20;6.70;;;4.00;;
3627;SDS011;1830;49.000;12.074;2023-11-21T10:56:48;5.27;;;4.23;;
3627;SDS011;1830;49.000;12.074;2023-11-21T10:59:20;5.30;;;4.27;;
3627;SDS011;1830;49.000;12.074;2023-11-21T11:01:50;4.60;;;4.20;;
3627;SDS011;1830;49.000;12.074;2023-11-21T11:04:18;10.17;;;5.00;;
3627;SDS011;1830;49.000;12.074;2023-11-21T11:06:48;6.53;;;5.13;;
3627;SDS011;1830;49.000;12.074;2023-11-21T11:09:17;5.20;;;4.80;;
3627;SDS011;1830;49.000;12.074;2023-11-21T11:11:44;10.20;;;7.37;;
3627;SDS011;1830;49.000;12.074;2023-11-21T11:14:12;11.10;;;7.53;;
3627;SDS011;1830;49.000;12.074;2023-11-21T11:16:41;16.87;;;8.50;;
3627;SDS011;1830;49.000;12.074;2023-11-21T11:19:08;4.90;;;3.90;;
3627;SDS011;1830;49.000;12.074;2023-11-21T11:21:37;4.10;;;3.57;;
3627;SDS011;1830;49.000;12.074;2023-11-21T11:24:23;4.13;;;3.73;;
3627;SDS011;1830;49.000;12.074;2023-11-21T11:27:15;4.67;;;3.77;;
3627;SDS011;1830;49.000;12.074;2023-11-21T11:30:04;5.37;;;4.00;;
3627;SDS011;1830;49.000;12.074;2023-11-21T11:32:40;4.03;;;3.53;;
3627;SDS011;1830;49.000;12.074;2023-11-21T11:35:17;5.80;;;4.77;;
3627;SDS011;1830;49.000;12.074;2023-11-21T11:37:50;4.60;;;4.20;;
3627;SDS011;1830;49.000;12.074;2023-11-21T11:40:17;8.13;;;4.20;;
3627;SDS011;1830;49.000;12.074;2023-11-21T11:42:55;8.03;;;4.10;;
3627;SDS011;1830;49.000;12.074;2023-11-21T11:45:23;3.93;;;3.50;;
3627;SDS011;1830;49.000;12.074;2023-11-21T11:48:00;6.00;;;3.70;;
3627;SDS011;1830;49.000;12.074;2023-11-21T11:50:27;6.93;;;4.00;;
3627;SDS011;1830;49.000;12.074;2023-11-21T11:52:54;9.67;;;4.63;;
3627;SDS011;1830;49.000;12.074;2023-11-21T11:55:22;4.83;;;4.20;;
3627;SDS011;1830;49.000;12.074;2023-11-21T11:57:50;5.77;;;4.10;;
3627;SDS011;1830;49.000;12.074;2023-11-21T12:00:21;6.30;;;4.47;;
3627;SDS011;1830;49.000;12.074;2023-11-21T12:02:50;8.63;;;4.50;;
3627;SDS011;1830;49.000;12.074;2023-11-21T12:05:20;4.07;;;3.60;;
3627;SDS011;1830;49.000;12.074;2023-11-21T12:07:49;9.37;;;4.60;;
3627;SDS011;1830;49.000;12.074;2023-11-21T12:10:19;4.77;;;3.63;;
3627;SDS011;1830;49.000;12.074;2023-11-21T12:12:48;3.87;;;3.53;;
3627;SDS011;1830;49.000;12.074;2023-11-21T12:15:17;4.67;;;4.17;;
3627;SDS011;1830;49.000;12.074;2023-11-21T12:17:45;4.33;;;3.30;;
3627;SDS011;1830;49.000;12.074;2023-11-21T12:20:12;7.50;;;4.30;;
3627;SDS011;1830;49.000;12.074;2023-11-21T12:22:45;5.13;;;4.00;;
3627;SDS011;1830;49.000;12.074;2023-11-21T12:25:14;6.60;;;3.67;;
3627;SDS011;1830;49.000;12.074;2023-11-21T12:27:43;6.30;;;4.10;;
3627;SDS011;1830;49.000;12.074;2023-11-21T12:30:11;5.60;;;3.50;;
3627;SDS011;1830;49.000;12.074;2023-11-21T12:32:40;7.23;;;4.20;;
3627;SDS011;1830;49.000;12.074;2023-11-21T12:35:08;4.50;;;3.90;;
3627;SDS011;1830;49.000;12.074;2023-11-21T12:37:36;6.30;;;3.80;;
3627;SDS011;1830;49.000;12.074;2023-11-21T12:40:05;4.57;;;3.80;;
3627;SDS011;1830;49.000;12.074;2023-11-21T12:42:33;6.83;;;3.93;;
3627;SDS011;1830;49.000;12.074;2023-11-21T12:45:07;11.83;;;5.90;;
3627;SDS011;1830;49.000;12.074;2023-11-21T12:47:39;8.43;;;3.90;;
3627;SDS011;1830;49.000;12.074;2023-11-21T12:50:06;11.93;;;3.30;;
3627;SDS011;1830;49.000;12.074;2023-11-21T12:52:39;7.97;;;4.00;;
3627;SDS011;1830;49.000;12.074;2023-11-21T12:55:14;4.73;;;3.97;;
3627;SDS011;1830;49.000;12.074;2023-11-21T12:57:42;5.17;;;3.77;;
3627;SDS011;1830;49.000;12.074;2023-11-21T13:00:10;3.60;;;3.27;;
3627;SDS011;1830;49.000;12.074;2023-11-21T13:02:50;4.77;;;4.00;;
3627;SDS011;1830;49.000;12.074;2023-11-21T13:05:23;4.13;;;3.70;;
3627;SDS011;1830;49.000;12.074;2023-11-21T13:07:51;4.40;;;3.57;;
3627;SDS011;1830;49.000;12.074;2023-11-21T13:10:21;4.13;;;3.73;;
3627;SDS011;1830;49.000;12.074;2023-11-21T13:12:51;4.87;;;4.30;;
3627;SDS011;1830;49.000;12.074;2023-11-21T13:15:19;7.47;;;5.07;;
3627;SDS011;1830;49.000;12.074;2023-11-21T13:17:46;4.57;;;4.10;;
3627;SDS011;1830;49.000;12.074;2023-11-21T13:20:15;5.87;;;4.90;;
3627;SDS011;1830;49.000;12.074;2023-11-21T13:22:46;12.40;;;8.63;;
3627;SDS011;1830;49.000;12.074;2023-11-21T13:25:14;15.73;;;9.80;;
3627;SDS011;1830;49.000;12.074;2023-11-21T13:27:44;13.63;;;9.33;;
3627;SDS011;1830;49.000;12.074;2023-11-21T13:30:12;8.50;;;6.33;;
3627;SDS011;1830;49.000;12.074;2023-11-21T13:32:41;9.53;;;6.00;;
3627;SDS011;1830;49.000;12.074;2023-11-21T13:35:09;8.07;;;7.10;;
3627;SDS011;1830;49.000;12.074;2023-11-21T13:37:45;7.70;;;4.63;;
3627;SDS011;1830;49.000;12.074;2023-11-21T13:40:14;5.27;;;4.20;;
3627;SDS011;1830;49.000;12.074;2023-11-21T13:42:54;8.33;;;4.27;;
3627;SDS011;1830;49.000;12.074;2023-11-21T13:45:24;3.93;;;3.60;;
3627;SDS011;1830;49.000;12.074;2023-11-21T13:47:53;10.70;;;6.33;;
3627;SDS011;1830;49.000;12.074;2023-11-21T13:50:23;8.10;;;5.17;;
3627;SDS011;1830;49.000;12.074;2023-11-21T13:52:54;10.60;;;4.20;;
3627;SDS011;1830;49.000;12.074;2023-11-21T13:55:20;5.50;;;4.00;;
3627;SDS011;1830;49.000;12.074;2023-11-21T13:57:50;4.73;;;4.30;;
3627;SDS011;1830;49.000;12.074;2023-11-21T14:00:19;5.10;;;4.53;;
3627;SDS011;1830;49.000;12.074;2023-11-21T14:03:17;9.37;;;7.17;;
3627;SDS011;1830;49.000;12.074;2023-11-21T14:05:47;4.10;;;3.53;;
3627;SDS011;1830;49.000;12.074;2023-11-21T14:08:16;4.03;;;3.63;;
3627;SDS011;1830;49.000;12.074;2023-11-21T14:10:46;4.23;;;3.33;;
3627;SDS011;1830;49.000;12.074;2023-11-21T14:13:16;5.00;;;3.10;;
3627;SDS011;1830;49.000;12.074;2023-11-21T14:15:46;4.10;;;3.70;;
3627;SDS011;1830;49.000;12.074;2023-11-21T14:18:16;4.23;;;3.87;;
3627;SDS011;1830;49.000;12.074;2023-11-21T14:20:51;4.47;;;4.03;;
3627;SDS011;1830;49.000;12.074;2023-11-21T14:23:17;8.13;;;3.77;;
3627;SDS011;1830;49.000;12.074;2023-11-21T14:25:46;5.03;;;4.10;;
3627;SDS011;1830;49.000;12.074;2023-11-21T14:28:13;6.80;;;4.07;;
3627;SDS011;1830;49.000;12.074;2023-11-21T14:30:40;4.30;;;3.90;;
3627;SDS011;1830;49.000;12.074;2023-11-21T14:33:08;6.20;;;3.90;;
3627;SDS011;1830;49.000;12.074;2023-11-21T14:35:36;6.50;;;5.07;;
3627;SDS011;1830;49.000;12.074;2023-11-21T14:38:03;3.80;;;3.50;;
3627;SDS011;1830;49.000;12.074;2023-11-21T14:40:31;6.53;;;4.43;;
3627;SDS011;1830;49.000;12.074;2023-11-21T14:43:00;6.80;;;4.50;;
3627;SDS011;1830;49.000;12.074;2023-11-21T14:45:30;5.93;;;4.13;;
3627;SDS011;1830;49.000;12.074;2023-11-21T14:47:57;6.50;;;4.60;;
3627;SDS011;1830;49.000;12.074;2023-11-21T14:50:33;4.90;;;4.47;;
3627;SDS011;1830;49.000;12.074;2023-11-21T14:53:34;4.90;;;4.40;;
3627;SDS011;1830;49.000;12.074;2023-11-21T14:56:08;5.40;;;4.90;;
3627;SDS011;1830;49.000;12.074;2023-11-21T14:58:35;13.13;;;5.87;;